Time;durP1;ratioP1;P1;durP2;ratioP2;P2;SDS_P1;SDS_P2;PMS_P1;PMS_P2;Temp;Humidity;BMP_temperature;BMP_pressure;BME280_temperature;BME280_humidity;BME280_pressure;Samples;Min_cycle;Max_cycle;Signal;HPM_P1;HPM_P2
2022/08/23 00:01:55;;;;;;;9.68;4.40;;;17.40;99.90;;;;;;5114424;27;20481;-68
2022/08/23 00:04:25;;;;;;;5.85;3.63;;;17.30;99.90;;;;;;5112895;27;20036;-67
2022/08/23 00:06:52;;;;;;;8.43;4.40;;;17.20;99.90;;;;;;5107994;28;20067;-66
2022/08/23 00:09:19;;;;;;;8.48;4.28;;;17.20;99.90;;;;;;5090648;28;20121;-66
2022/08/23 00:11:52;;;;;;;7.10;4.32;;;17.20;99.90;;;;;;5107801;28;20420;-68
2022/08/23 00:14:22;;;;;;;8.65;4.13;;;17.20;99.90;;;;;;5117361;27;20123;-66
2022/08/23 00:16:48;;;;;;;7.15;5.03;;;17.10;99.90;;;;;;5110062;27;20040;-68
2022/08/23 00:19:16;;;;;;;6.07;4.70;;;17.10;99.90;;;;;;5111894;28;20393;-66
2022/08/23 00:21:42;;;;;;;7.38;4.50;;;17.10;99.90;;;;;;5109549;28;20035;-66
2022/08/23 00:24:10;;;;;;;8.88;4.60;;;17.00;99.90;;;;;;5110430;28;20046;-68
2022/08/23 00:26:57;;;;;;;11.13;5.05;;;17.00;99.90;;;;;;5090050;28;20089;-68
2022/08/23 00:29:27;;;;;;;11.35;6.47;;;17.00;99.90;;;;;;5106665;28;20039;-68
2022/08/23 00:31:53;;;;;;;11.05;5.60;;;16.90;99.90;;;;;;5116060;28;20076;-65
2022/08/23 00:34:20;;;;;;;8.32;5.10;;;16.90;99.90;;;;;;5109103;28;20036;-66
2022/08/23 00:36:48;;;;;;;11.15;5.07;;;16.90;99.90;;;;;;5091889;28;20123;-69
2022/08/23 00:39:14;;;;;;;8.68;4.88;;;16.80;99.90;;;;;;5111885;28;20054;-66
2022/08/23 00:41:40;;;;;;;11.68;5.20;;;16.80;99.90;;;;;;5108144;28;20093;-67
2022/08/23 00:50:12;;;;;;;6.22;4.60;;;16.70;99.90;;;;;;5108981;28;20036;-67
2022/08/23 00:52:46;;;;;;;5.22;4.70;;;16.60;99.90;;;;;;5107364;28;20172;-68
2022/08/23 00:55:12;;;;;;;7.45;5.20;;;16.60;99.90;;;;;;5116779;28;20111;-68
2022/08/23 00:57:38;;;;;;;7.35;4.20;;;16.60;99.90;;;;;;5109957;28;20516;-69
2022/08/23 01:00:07;;;;;;;6.55;4.72;;;16.60;99.90;;;;;;5108448;28;20043;-68
2022/08/23 01:02:33;;;;;;;8.15;4.65;;;16.60;99.90;;;;;;5090359;28;20048;-68
2022/08/23 01:05:00;;;;;;;7.72;4.80;;;16.50;99.90;;;;;;5112725;28;20397;-68
2022/08/23 01:07:28;;;;;;;6.78;4.57;;;16.50;99.90;;;;;;5112761;28;20036;-69
2022/08/23 01:09:58;;;;;;;7.93;4.53;;;16.50;99.90;;;;;;5111806;28;20110;-68
2022/08/23 01:12:32;;;;;;;7.30;4.32;;;16.50;99.90;;;;;;5119446;27;20043;-70
2022/08/23 01:15:25;;;;;;;6.50;4.75;;;16.50;99.90;;;;;;5112475;27;20047;-66
2022/08/23 01:18:01;;;;;;;7.75;4.28;;;16.50;99.90;;;;;;5125717;27;20049;-68
2022/08/23 01:20:30;;;;;;;7.15;4.80;;;16.40;99.90;;;;;;5110861;27;20522;-66
2022/08/23 01:23:07;;;;;;;6.97;4.47;;;16.40;99.90;;;;;;5092190;28;20074;-67
2022/08/23 01:25:33;;;;;;;7.53;4.78;;;16.40;99.90;;;;;;5115515;27;20074;-67
2022/08/23 01:27:59;;;;;;;6.03;4.90;;;16.40;99.90;;;;;;5111206;28;20035;-68
2022/08/23 01:30:31;;;;;;;8.98;5.25;;;16.40;99.90;;;;;;5110727;28;20039;-68
2022/08/23 01:32:59;;;;;;;8.90;5.80;;;16.40;99.90;;;;;;5111901;28;20043;-66
2022/08/23 01:35:42;;;;;;;8.85;5.75;;;16.40;99.90;;;;;;5111714;28;20504;-69
2022/08/23 01:38:10;;;;;;;7.43;5.28;;;16.30;99.90;;;;;;5129132;27;20488;-69
2022/08/23 01:40:36;;;;;;;7.47;4.95;;;16.30;99.90;;;;;;5094736;28;20383;-68
2022/08/23 01:43:03;;;;;;;8.45;5.30;;;16.30;99.90;;;;;;5117664;27;20035;-66
2022/08/23 01:45:29;;;;;;;10.30;6.07;;;16.20;99.90;;;;;;5111366;28;20040;-68
2022/08/23 01:47:56;;;;;;;10.20;6.13;;;16.20;99.90;;;;;;5111370;28;20131;-68
2022/08/23 01:50:23;;;;;;;10.25;5.75;;;16.20;99.90;;;;;;5127869;27;20043;-68
2022/08/23 01:52:49;;;;;;;10.30;5.90;;;16.20;99.90;;;;;;5095212;28;20043;-66
2022/08/23 01:55:15;;;;;;;10.27;6.18;;;16.20;99.90;;;;;;5110953;28;20044;-68
2022/08/23 01:57:43;;;;;;;7.75;5.80;;;16.20;99.90;;;;;;5116092;27;20043;-68
2022/08/23 02:00:10;;;;;;;8.65;5.60;;;16.10;99.90;;;;;;5110996;28;20087;-68
2022/08/23 02:02:36;;;;;;;8.85;5.55;;;16.10;99.90;;;;;;5110850;28;20063;-70
2022/08/23 02:05:06;;;;;;;7.65;4.97;;;16.10;99.90;;;;;;5113293;27;20401;-67
2022/08/23 02:07:32;;;;;;;6.28;5.53;;;16.10;99.90;;;;;;5101213;28;20115;-69
2022/08/23 02:09:57;;;;;;;5.70;4.90;;;16.10;99.90;;;;;;5094945;28;20043;-67
2022/08/23 02:12:23;;;;;;;7.18;5.22;;;16.10;99.90;;;;;;5114426;27;20050;-67
2022/08/23 02:14:49;;;;;;;6.10;4.85;;;16.00;99.90;;;;;;5111113;27;20043;-67
2022/08/23 02:17:15;;;;;;;9.32;5.22;;;16.00;99.90;;;;;;5109283;28;20067;-67
2022/08/23 02:19:42;;;;;;;5.32;4.68;;;16.00;99.90;;;;;;5118650;27;20108;-67
2022/08/23 02:22:09;;;;;;;6.82;4.60;;;16.00;99.90;;;;;;5121636;27;20054;-67
2022/08/23 02:24:40;;;;;;;6.65;5.15;;;15.90;99.90;;;;;;5108210;28;20096;-68
2022/08/23 02:27:06;;;;;;;7.47;5.32;;;15.90;99.90;;;;;;5099899;28;20038;-66
2022/08/23 02:29:34;;;;;;;6.78;4.93;;;15.90;99.90;;;;;;5114727;27;20047;-67
2022/08/23 02:32:00;;;;;;;8.63;5.25;;;15.90;99.90;;;;;;5129562;27;20430;-66
2022/08/23 02:34:29;;;;;;;8.07;4.30;;;15.90;99.90;;;;;;5108068;28;20062;-69
2022/08/23 02:36:55;;;;;;;5.65;4.68;;;15.90;99.90;;;;;;5111368;28;20120;-66
2022/08/23 02:39:21;;;;;;;6.93;4.75;;;15.90;99.90;;;;;;5112068;27;20071;-68
2022/08/23 02:41:47;;;;;;;5.90;4.80;;;15.90;99.90;;;;;;5109916;28;20052;-67
2022/08/23 02:44:12;;;;;;;6.00;5.40;;;15.80;99.90;;;;;;5098033;28;20062;-66
2022/08/23 02:46:39;;;;;;;7.32;5.13;;;15.90;99.90;;;;;;5121491;27;20473;-67
2022/08/23 02:49:05;;;;;;;7.85;5.53;;;15.80;99.90;;;;;;5117497;27;20443;-68
2022/08/23 02:51:31;;;;;;;12.15;6.40;;;15.80;99.90;;;;;;5129811;27;20092;-67
2022/08/23 02:53:57;;;;;;;5.95;5.35;;;15.70;99.90;;;;;;5114000;27;20043;-68
2022/08/23 02:56:22;;;;;;;6.25;5.15;;;15.70;99.90;;;;;;5131279;27;20039;-66
2022/08/23 02:58:50;;;;;;;5.45;4.90;;;15.70;99.90;;;;;;5121017;27;20070;-66
2022/08/23 03:01:22;;;;;;;5.55;5.05;;;15.70;99.90;;;;;;5111770;28;20027;-67
2022/08/23 03:03:47;;;;;;;7.15;5.15;;;15.70;99.90;;;;;;5109034;28;20065;-70
2022/08/23 03:06:15;;;;;;;6.47;5.70;;;15.70;99.90;;;;;;5110473;28;20035;-67
2022/08/23 03:08:41;;;;;;;6.53;5.55;;;15.70;99.90;;;;;;5113748;27;20428;-66
2022/08/23 03:11:12;;;;;;;5.85;5.28;;;15.70;99.90;;;;;;5109135;27;20122;-68
2022/08/23 03:13:39;;;;;;;8.40;5.60;;;15.60;99.90;;;;;;5115214;27;20517;-65
2022/08/23 03:16:07;;;;;;;8.57;6.20;;;15.60;99.90;;;;;;5119831;27;20092;-67
2022/08/23 03:18:34;;;;;;;6.70;6.07;;;15.60;99.90;;;;;;5109052;28;20047;-67
2022/08/23 03:20:59;;;;;;;7.75;6.70;;;15.60;99.90;;;;;;5127234;27;20386;-70
2022/08/23 03:23:25;;;;;;;10.20;7.03;;;15.60;99.90;;;;;;5110107;27;20043;-66
2022/08/23 03:25:51;;;;;;;8.35;6.75;;;15.60;99.90;;;;;;5092945;28;20162;-65
2022/08/23 03:28:19;;;;;;;9.23;6.75;;;15.60;99.90;;;;;;5109187;28;20051;-67
2022/08/23 03:30:44;;;;;;;7.38;6.60;;;15.50;99.90;;;;;;5112650;27;20111;-68
2022/08/23 03:33:10;;;;;;;7.47;6.47;;;15.50;99.90;;;;;;5108561;27;20563;-66
2022/08/23 03:35:35;;;;;;;9.93;7.18;;;15.50;99.90;;;;;;5110019;28;20112;-68
2022/08/23 03:38:01;;;;;;;8.57;6.85;;;15.40;99.90;;;;;;5109286;28;20450;-68
2022/08/23 03:40:27;;;;;;;9.30;6.75;;;15.50;99.90;;;;;;5106577;28;20134;-67
2022/08/23 03:42:53;;;;;;;6.85;6.25;;;15.50;99.90;;;;;;5107251;28;20051;-67
2022/08/23 03:45:19;;;;;;;8.45;6.53;;;15.50;99.90;;;;;;5109528;28;20070;-67
2022/08/23 03:47:44;;;;;;;9.13;6.70;;;15.50;99.90;;;;;;5115079;27;20039;-65
2022/08/23 03:50:10;;;;;;;8.18;6.00;;;15.50;99.90;;;;;;5108415;28;20043;-68
2022/08/23 03:52:36;;;;;;;6.57;5.90;;;15.40;99.90;;;;;;5108625;28;20039;-67
2022/08/23 03:55:02;;;;;;;7.65;6.05;;;15.40;99.90;;;;;;5121354;27;20564;-67
2022/08/23 03:57:28;;;;;;;6.97;6.03;;;15.40;99.90;;;;;;5115493;27;20034;-67
2022/08/23 03:59:54;;;;;;;7.20;6.28;;;15.40;99.90;;;;;;5111267;27;20036;-68
2022/08/23 04:02:19;;;;;;;8.55;6.47;;;15.40;99.90;;;;;;5109993;27;20461;-68
2022/08/23 04:04:45;;;;;;;7.72;7.00;;;15.40;99.90;;;;;;5091624;27;20097;-67
2022/08/23 04:07:10;;;;;;;10.07;6.28;;;15.40;99.90;;;;;;5118936;27;20039;-65
2022/08/23 04:09:36;;;;;;;6.63;5.93;;;15.30;99.90;;;;;;5112129;27;20075;-68
2022/08/23 04:12:02;;;;;;;6.40;5.80;;;15.30;99.90;;;;;;5109489;28;20054;-65
2022/08/23 04:14:28;;;;;;;7.65;6.20;;;15.30;99.90;;;;;;5106724;28;20092;-65
2022/08/23 04:16:53;;;;;;;7.95;6.25;;;15.30;99.90;;;;;;5088879;28;20469;-65
2022/08/23 04:19:19;;;;;;;7.55;6.10;;;15.30;99.90;;;;;;5095412;28;20501;-67
2022/08/23 04:21:49;;;;;;;7.75;6.95;;;15.20;99.90;;;;;;5109840;28;20131;-69
2022/08/23 04:24:15;;;;;;;10.23;7.13;;;15.20;99.90;;;;;;5110592;28;20123;-68
2022/08/23 04:26:41;;;;;;;8.15;6.63;;;15.30;99.90;;;;;;5108252;28;20427;-69
2022/08/23 04:29:08;;;;;;;8.57;6.95;;;15.20;99.90;;;;;;5114238;28;20447;-66
2022/08/23 04:31:34;;;;;;;9.63;6.85;;;15.20;99.90;;;;;;5128520;28;20039;-66
2022/08/23 04:34:01;;;;;;;9.32;7.20;;;15.20;99.90;;;;;;5109753;28;20051;-66
2022/08/23 04:36:32;;;;;;;7.15;6.45;;;15.20;99.90;;;;;;5114545;28;20048;-68
2022/08/23 04:38:57;;;;;;;7.70;6.40;;;15.20;99.90;;;;;;5119134;27;20043;-67
2022/08/23 04:44:08;;;;;;;7.38;6.55;;;15.10;99.90;;;;;;5132384;27;20051;-67
2022/08/23 04:46:34;;;;;;;7.53;6.00;;;15.10;99.90;;;;;;5118571;27;20035;-67
2022/08/23 04:49:00;;;;;;;6.88;5.68;;;15.10;99.90;;;;;;5109168;28;20465;-68
2022/08/23 04:51:25;;;;;;;9.57;6.50;;;15.10;99.90;;;;;;5115771;27;20122;-70
2022/08/23 04:53:51;;;;;;;9.07;7.38;;;15.10;99.90;;;;;;5113288;28;20094;-65
2022/08/23 04:56:17;;;;;;;10.45;7.28;;;15.10;99.90;;;;;;5119380;27;20398;-67
2022/08/23 04:58:43;;;;;;;9.95;7.90;;;15.00;99.90;;;;;;5106663;28;20047;-68
2022/08/23 05:01:09;;;;;;;10.23;7.90;;;15.10;99.90;;;;;;5117875;27;20039;-67
2022/08/23 05:03:36;;;;;;;12.68;8.68;;;15.10;99.90;;;;;;5114229;27;20090;-68
2022/08/23 05:06:03;;;;;;;9.55;8.30;;;15.10;99.90;;;;;;5115538;27;20042;-67
2022/08/23 05:08:30;;;;;;;8.35;7.55;;;15.10;99.90;;;;;;5110770;28;20074;-70
2022/08/23 05:11:02;;;;;;;8.70;7.43;;;15.20;99.90;;;;;;5111672;28;20059;-70
2022/08/23 05:13:28;;;;;;;9.52;6.88;;;15.20;99.90;;;;;;5114591;27;20478;-67
2022/08/23 05:15:54;;;;;;;10.50;7.68;;;15.30;99.90;;;;;;5120538;27;20043;-67
2022/08/23 05:18:20;;;;;;;10.35;8.43;;;15.30;99.90;;;;;;5111677;27;20124;-67
2022/08/23 05:20:46;;;;;;;8.38;7.50;;;15.40;99.90;;;;;;5131788;27;20160;-68
2022/08/23 05:23:11;;;;;;;9.95;7.88;;;15.50;99.90;;;;;;5094234;28;20096;-66
2022/08/23 05:25:49;;;;;;;8.70;7.80;;;15.50;99.90;;;;;;5112315;28;20039;-67
2022/08/23 05:28:21;;;;;;;9.75;8.20;;;15.60;99.90;;;;;;5129972;27;20031;-65
2022/08/23 05:30:59;;;;;;;9.25;7.25;;;15.70;99.90;;;;;;5133322;27;20046;-66
2022/08/23 05:33:26;;;;;;;9.00;8.10;;;15.70;99.90;;;;;;5116368;27;20407;-65
2022/08/23 05:35:52;;;;;;;11.18;8.52;;;15.70;99.90;;;;;;5133309;27;20050;-67
2022/08/23 05:38:19;;;;;;;8.45;7.68;;;15.90;99.90;;;;;;5133311;27;20047;-67
2022/08/23 05:40:49;;;;;;;10.63;8.20;;;15.90;99.90;;;;;;5132928;27;20047;-67
2022/08/23 05:43:15;;;;;;;11.15;8.13;;;16.00;99.90;;;;;;5133039;27;20050;-65
2022/08/23 05:45:40;;;;;;;11.65;9.30;;;16.20;99.90;;;;;;5133135;27;20039;-68
2022/08/23 05:48:06;;;;;;;12.15;10.75;;;16.30;99.90;;;;;;5133392;27;20050;-69
2022/08/23 05:50:31;;;;;;;11.70;10.55;;;16.40;99.90;;;;;;5132616;27;20038;-70
2022/08/23 05:52:57;;;;;;;11.68;10.48;;;16.40;99.90;;;;;;5133121;27;20035;-68
2022/08/23 05:55:23;;;;;;;17.90;11.90;;;16.50;99.90;;;;;;5133144;27;20126;-67
2022/08/23 05:57:48;;;;;;;16.27;12.93;;;16.60;99.90;;;;;;5132757;27;20050;-67
2022/08/23 06:00:14;;;;;;;15.80;14.10;;;16.60;99.90;;;;;;5132893;27;20080;-67
2022/08/23 06:02:41;;;;;;;17.65;13.63;;;16.70;99.90;;;;;;5132564;27;20458;-65
2022/08/23 06:05:08;;;;;;;14.73;13.10;;;16.80;99.90;;;;;;5132889;27;20088;-65
2022/08/23 06:07:34;;;;;;;18.42;13.90;;;16.80;99.90;;;;;;5132618;27;20050;-67
2022/08/23 06:10:00;;;;;;;17.83;13.60;;;16.80;99.90;;;;;;5115636;27;20130;-67
2022/08/23 06:12:26;;;;;;;13.75;12.30;;;16.80;99.90;;;;;;5133895;27;20047;-66
2022/08/23 06:14:52;;;;;;;15.88;11.93;;;16.90;99.90;;;;;;5132757;27;20362;-67
2022/08/23 06:17:18;;;;;;;17.88;12.93;;;16.90;99.90;;;;;;5132430;27;20050;-65
2022/08/23 06:19:43;;;;;;;13.90;11.90;;;17.00;99.90;;;;;;5132176;27;20038;-68
2022/08/23 06:22:09;;;;;;;15.88;12.38;;;17.10;99.90;;;;;;5132509;27;20412;-67
2022/08/23 06:24:35;;;;;;;16.42;12.60;;;17.20;99.90;;;;;;5132448;27;20447;-66
2022/08/23 06:27:01;;;;;;;12.85;11.60;;;17.20;99.90;;;;;;5132114;27;20031;-66
2022/08/23 06:29:27;;;;;;;16.33;12.25;;;17.30;99.90;;;;;;5132976;27;20465;-67
2022/08/23 06:31:53;;;;;;;14.10;12.43;;;17.40;99.90;;;;;;5132162;27;20924;-67
2022/08/23 06:34:32;;;;;;;14.57;12.38;;;17.60;99.90;;;;;;5132516;27;20501;-67
2022/08/23 06:37:00;;;;;;;13.00;11.38;;;17.70;99.90;;;;;;5132238;27;20046;-65
2022/08/23 06:39:29;;;;;;;11.73;10.30;;;17.90;99.90;;;;;;5131842;27;20043;-65
2022/08/23 06:42:05;;;;;;;15.93;11.48;;;18.10;99.90;;;;;;5131940;27;20054;-65
2022/08/23 06:44:32;;;;;;;13.77;10.75;;;18.20;99.90;;;;;;5114800;27;20043;-67
2022/08/23 06:46:58;;;;;;;17.58;10.02;;;18.50;99.90;;;;;;5132245;27;20049;-66
2022/08/23 06:49:24;;;;;;;12.82;11.02;;;18.70;99.90;;;;;;5131885;27;20121;-65
2022/08/23 06:51:52;;;;;;;11.18;9.45;;;18.90;99.90;;;;;;5114358;27;20039;-65
2022/08/23 06:54:26;;;;;;;12.00;9.82;;;19.10;99.90;;;;;;5131755;27;20099;-66
2022/08/23 06:56:52;;;;;;;11.25;10.02;;;19.40;99.90;;;;;;5131608;27;22286;-66
2022/08/23 06:59:19;;;;;;;13.13;9.65;;;19.40;99.90;;;;;;5131615;27;20047;-67
2022/08/23 07:01:49;;;;;;;17.85;9.88;;;19.60;99.90;;;;;;5131146;27;20520;-66
2022/08/23 07:04:21;;;;;;;11.65;9.27;;;19.80;99.90;;;;;;5131593;27;20088;-68
2022/08/23 07:06:47;;;;;;;10.90;9.38;;;20.00;99.90;;;;;;5131307;27;20097;-66
2022/08/23 07:09:13;;;;;;;10.70;9.63;;;20.10;99.90;;;;;;5132867;27;20027;-67
2022/08/23 07:11:39;;;;;;;17.45;11.23;;;20.10;99.90;;;;;;5131357;27;20086;-65
2022/08/23 07:14:10;;;;;;;11.18;9.95;;;20.00;99.90;;;;;;5131333;27;20038;-67
2022/08/23 07:16:43;;;;;;;13.00;11.60;;;20.00;99.90;;;;;;5131408;27;20405;-68
2022/08/23 07:19:09;;;;;;;13.00;11.70;;;20.00;99.90;;;;;;5131108;27;20035;-68
2022/08/23 07:21:35;;;;;;;15.68;11.48;;;20.00;99.90;;;;;;5131328;27;20516;-66
2022/08/23 07:24:01;;;;;;;14.20;10.57;;;20.00;99.90;;;;;;5132346;27;20046;-67
2022/08/23 07:26:27;;;;;;;11.93;9.32;;;20.00;99.90;;;;;;5131190;27;20035;-67
2022/08/23 07:28:54;;;;;;;12.40;9.35;;;20.10;99.90;;;;;;5131168;27;20409;-65
2022/08/23 07:31:29;;;;;;;11.75;8.88;;;20.20;99.90;;;;;;5131104;27;20039;-66
2022/08/23 07:33:57;;;;;;;11.35;8.00;;;20.30;99.90;;;;;;5130748;27;20058;-67
2022/08/23 07:36:25;;;;;;;8.98;7.85;;;20.40;99.90;;;;;;5131033;27;20047;-68
2022/08/23 07:38:51;;;;;;;8.82;7.55;;;20.50;99.90;;;;;;5131027;27;20561;-65
2022/08/23 07:41:19;;;;;;;9.05;7.03;;;20.70;99.90;;;;;;5113794;27;20505;-67
2022/08/23 07:43:45;;;;;;;10.00;7.05;;;20.90;99.90;;;;;;5130800;27;20051;-67
2022/08/23 07:46:12;;;;;;;10.25;7.03;;;21.00;99.90;;;;;;5130586;27;20031;-67
2022/08/23 07:48:38;;;;;;;12.68;7.07;;;21.30;99.90;;;;;;5130817;27;20035;-69
2022/08/23 07:51:08;;;;;;;10.18;6.80;;;21.40;99.90;;;;;;5130596;27;20114;-67
2022/08/23 07:53:34;;;;;;;9.02;7.05;;;21.40;99.90;;;;;;5130873;27;20049;-66
2022/08/23 07:56:04;;;;;;;9.35;6.43;;;21.30;99.90;;;;;;5130593;27;20464;-68
2022/08/23 07:58:29;;;;;;;10.27;7.07;;;21.30;99.90;;;;;;5130739;27;20450;-68
2022/08/23 08:00:55;;;;;;;11.35;7.18;;;21.40;99.90;;;;;;5130303;27;20101;-68
2022/08/23 08:03:21;;;;;;;11.48;7.53;;;21.50;99.90;;;;;;5130346;27;20389;-64
2022/08/23 08:05:46;;;;;;;11.05;7.22;;;21.60;99.90;;;;;;5130599;27;20074;-68
2022/08/23 08:08:12;;;;;;;8.57;6.60;;;21.70;99.90;;;;;;5131624;27;20555;-68
2022/08/23 08:10:40;;;;;;;10.07;7.50;;;21.80;99.90;;;;;;5130681;27;20057;-66
2022/08/23 08:13:07;;;;;;;9.23;7.05;;;21.90;99.90;;;;;;5112184;27;20053;-67
2022/08/23 08:15:34;;;;;;;8.25;5.53;;;22.00;99.90;;;;;;5130763;27;20473;-67
2022/08/23 08:17:59;;;;;;;8.10;6.25;;;22.20;99.90;;;;;;5130511;27;20385;-66
2022/08/23 08:20:27;;;;;;;8.13;6.30;;;22.30;99.90;;;;;;5130191;27;20043;-68
2022/08/23 08:22:54;;;;;;;9.30;6.57;;;22.30;99.90;;;;;;5130115;27;20047;-66
2022/08/23 08:25:20;;;;;;;9.57;6.20;;;22.40;99.90;;;;;;5130167;28;20032;-68
2022/08/23 08:27:46;;;;;;;8.85;6.32;;;22.40;99.90;;;;;;5130464;28;20042;-66
2022/08/23 08:30:12;;;;;;;9.13;6.05;;;22.40;99.90;;;;;;5130127;28;20513;-69
2022/08/23 08:32:38;;;;;;;9.90;5.95;;;22.50;99.90;;;;;;5130562;28;20035;-66
2022/08/23 08:35:04;;;;;;;9.07;5.45;;;22.60;99.90;;;;;;5130433;28;20027;-67
2022/08/23 08:37:30;;;;;;;6.95;4.90;;;22.70;99.90;;;;;;5130542;27;20085;-65
2022/08/23 08:39:57;;;;;;;7.05;5.55;;;22.70;99.90;;;;;;5129932;27;20443;-65
2022/08/23 08:43:04;;;;;;;7.53;5.30;;;23.00;99.90;;;;;;5130168;28;20035;-68
2022/08/23 08:45:43;;;;;;;10.10;6.35;;;23.10;99.90;;;;;;5113272;28;20038;-68
2022/08/23 08:48:14;;;;;;;8.18;6.32;;;23.40;99.90;;;;;;5129948;28;20397;-67
2022/08/23 08:50:54;;;;;;;6.88;5.38;;;23.40;99.90;;;;;;5130168;28;20156;-67
2022/08/23 08:53:42;;;;;;;10.02;5.95;;;23.60;99.90;;;;;;5130031;27;20119;-67
2022/08/23 08:56:25;;;;;;;9.20;6.13;;;23.70;99.90;;;;;;5131328;27;20452;-68
2022/08/23 08:58:59;;;;;;;7.03;6.30;;;24.00;99.90;;;;;;5130052;28;20039;-68
2022/08/23 09:01:27;;;;;;;8.73;6.20;;;24.00;99.90;;;;;;5112371;28;20047;-68
2022/08/23 09:03:55;;;;;;;10.88;7.38;;;24.00;99.90;;;;;;5129933;28;20039;-67
2022/08/23 09:06:30;;;;;;;10.07;6.20;;;24.00;99.90;;;;;;5129720;28;20080;-67
2022/08/23 09:09:17;;;;;;;9.35;5.68;;;24.00;99.90;;;;;;5129909;27;20039;-68
2022/08/23 09:12:04;;;;;;;8.88;6.35;;;24.00;99.90;;;;;;5129864;28;20067;-68
2022/08/23 09:14:37;;;;;;;8.65;5.88;;;24.10;99.90;;;;;;5129598;28;20035;-66
2022/08/23 09:17:14;;;;;;;7.70;6.20;;;24.20;99.90;;;;;;5130029;28;20480;-68
2022/08/23 09:19:40;;;;;;;9.50;5.22;;;24.30;99.90;;;;;;5129991;27;20035;-65
2022/08/23 09:22:17;;;;;;;9.18;7.00;;;24.60;99.90;;;;;;5129831;27;20511;-66
2022/08/23 09:24:43;;;;;;;10.82;6.50;;;24.70;99.90;;;;;;5130906;27;20047;-67
2022/08/23 09:27:09;;;;;;;10.13;6.20;;;24.70;99.90;;;;;;5133526;27;20034;-67
2022/08/23 09:29:38;;;;;;;9.98;6.20;;;24.80;99.90;;;;;;5133424;27;20389;-65
2022/08/23 09:32:16;;;;;;;12.25;5.57;;;24.90;99.90;;;;;;5133519;27;20122;-66
2022/08/23 09:34:42;;;;;;;8.73;5.97;;;25.00;99.90;;;;;;5133590;27;20546;-66
2022/08/23 09:37:10;;;;;;;9.85;6.53;;;24.90;99.90;;;;;;5133545;27;20069;-65
2022/08/23 09:39:43;;;;;;;7.97;5.93;;;25.10;99.90;;;;;;5133096;27;20122;-66
2022/08/23 09:42:29;;;;;;;9.70;6.20;;;25.30;99.90;;;;;;5133260;27;20066;-66
2022/08/23 09:44:56;;;;;;;8.02;6.05;;;25.40;99.90;;;;;;5133229;27;20130;-65
2022/08/23 09:47:39;;;;;;;9.60;6.28;;;25.40;99.90;;;;;;5132829;27;20042;-67
2022/08/23 09:50:27;;;;;;;11.48;6.20;;;25.20;99.90;;;;;;5133128;27;20043;-66
2022/08/23 09:53:03;;;;;;;9.77;5.78;;;25.30;99.90;;;;;;5133112;27;20043;-65
2022/08/23 09:55:34;;;;;;;10.50;5.35;;;25.60;99.90;;;;;;5132897;27;20508;-67
2022/08/23 09:58:03;;;;;;;8.82;5.32;;;25.90;99.90;;;;;;5116103;27;20611;-69
2022/08/23 10:00:36;;;;;;;6.95;4.70;;;26.30;99.90;;;;;;5132709;27;20046;-68
2022/08/23 10:03:27;;;;;;;9.25;4.78;;;26.50;99.40;;;;;;5132884;27;20047;-66
2022/08/23 10:05:56;;;;;;;8.93;5.80;;;26.50;98.80;;;;;;5134107;27;20440;-67
2022/08/23 10:08:31;;;;;;;8.65;5.80;;;26.60;99.10;;;;;;5132496;27;20127;-68
2022/08/23 10:11:17;;;;;;;5.55;4.32;;;26.70;99.00;;;;;;5132719;27;20035;-66
2022/08/23 10:13:43;;;;;;;10.38;4.32;;;26.90;99.70;;;;;;5133080;27;20035;-68
2022/08/23 10:16:46;;;;;;;7.18;4.03;;;27.10;98.70;;;;;;5115485;27;20087;-66
2022/08/23 10:19:39;;;;;;;9.10;4.05;;;27.30;98.50;;;;;;5132865;27;20038;-68
2022/08/23 10:22:34;;;;;;;7.90;4.43;;;27.70;98.80;;;;;;5132789;27;20089;-68
2022/08/23 10:25:11;;;;;;;7.22;3.90;;;27.90;97.60;;;;;;5132527;27;20392;-67
2022/08/23 10:31:05;;;;;;;6.65;3.38;;;28.30;97.70;;;;;;5132130;27;20039;-67
2022/08/23 10:33:53;;;;;;;9.93;3.83;;;28.40;97.00;;;;;;5131932;27;20043;-68
2022/08/23 10:36:37;;;;;;;10.68;4.40;;;28.40;96.40;;;;;;5131423;27;20046;-67
2022/08/23 10:39:13;;;;;;;7.68;3.65;;;28.60;96.10;;;;;;5114518;27;20133;-67
2022/08/23 10:42:05;;;;;;;7.20;3.85;;;28.70;96.20;;;;;;5131753;27;20055;-66
2022/08/23 10:44:45;;;;;;;11.73;4.35;;;28.70;95.50;;;;;;5131851;27;20096;-67
2022/08/23 10:47:36;;;;;;;6.90;4.30;;;28.90;95.40;;;;;;5132018;27;20039;-67
2022/08/23 10:50:11;;;;;;;5.72;3.63;;;29.10;96.00;;;;;;5132187;27;20035;-68
2022/08/23 10:53:03;;;;;;;7.32;3.67;;;29.40;95.50;;;;;;5131676;27;20070;-67
2022/08/23 10:55:43;;;;;;;;;;;29.40;94.50;;;;;;5132381;27;20549;-68
2022/08/23 10:58:15;;;;;;;7.30;3.17;;;29.20;94.70;;;;;;5131774;27;19950;-69
2022/08/23 11:00:42;;;;;;;5.80;2.80;;;29.30;94.90;;;;;;5132840;27;20043;-66
2022/08/23 11:03:27;;;;;;;6.18;2.60;;;29.30;94.50;;;;;;5131847;27;20389;-65
2022/08/23 11:06:22;;;;;;;7.22;3.33;;;29.60;95.60;;;;;;5131524;27;20092;-65
2022/08/23 11:08:59;;;;;;;9.07;3.25;;;29.50;92.90;;;;;;5131569;27;20047;-66
2022/08/23 11:11:36;;;;;;;6.38;2.80;;;29.50;93.20;;;;;;5131522;27;20054;-68
2022/08/23 11:14:02;;;;;;;5.80;2.67;;;29.40;93.40;;;;;;5131400;27;20087;-66
2022/08/23 11:16:31;;;;;;;8.63;2.67;;;29.50;93.40;;;;;;5131464;27;20114;-68
2022/08/23 11:18:57;;;;;;;8.98;2.95;;;29.50;93.20;;;;;;5132410;27;20504;-67
2022/08/23 11:21:43;;;;;;;6.20;2.35;;;29.50;92.70;;;;;;5131322;27;20039;-65
2022/08/23 11:24:11;;;;;;;4.63;2.17;;;29.30;93.00;;;;;;5131197;27;20039;-64
2022/08/23 11:26:38;;;;;;;9.40;2.60;;;29.20;93.40;;;;;;5131200;27;20484;-68
2022/08/23 11:29:09;;;;;;;5.53;2.90;;;29.20;93.50;;;;;;5130860;27;20039;-68
2022/08/23 11:32:04;;;;;;;7.50;2.85;;;29.40;93.00;;;;;;5131102;27;20043;-68
2022/08/23 11:34:42;;;;;;;5.63;3.10;;;29.50;93.20;;;;;;5113378;27;20074;-67
2022/08/23 11:37:23;;;;;;;6.25;3.05;;;29.60;92.90;;;;;;5131097;27;20392;-69
2022/08/23 11:39:58;;;;;;;5.90;2.47;;;29.70;92.70;;;;;;5130760;27;20046;-69
2022/08/23 11:42:48;;;;;;;7.63;2.83;;;29.90;93.20;;;;;;5130992;27;20039;-70
2022/08/23 11:45:26;;;;;;;7.30;2.90;;;30.00;93.40;;;;;;5131072;27;20125;-68
2022/08/23 11:48:12;;;;;;;5.22;3.60;;;30.00;92.80;;;;;;5130293;27;20648;-67
2022/08/23 11:50:50;;;;;;;6.97;3.00;;;30.10;92.10;;;;;;5130793;27;20031;-66
2022/08/23 11:53:31;;;;;;;7.13;3.53;;;30.00;92.50;;;;;;5130726;27;20167;-68
2022/08/23 11:56:09;;;;;;;9.07;2.70;;;30.10;92.50;;;;;;5130463;27;20046;-66
2022/08/23 11:59:23;;;;;;;10.43;3.30;;;30.00;91.90;;;;;;5131246;27;20789;-67
2022/08/23 12:01:48;;;;;;;5.68;3.10;;;30.00;91.60;;;;;;5032334;28;20103;-67
2022/08/23 12:04:36;;;;;;;11.55;3.40;;;29.90;91.70;;;;;;5031487;28;20033;-67
2022/08/23 12:07:11;;;;;;;6.40;2.50;;;29.70;91.20;;;;;;5031525;28;20045;-69
2022/08/23 12:09:39;;;;;;;4.20;2.33;;;29.70;91.10;;;;;;5048353;28;20505;-67
2022/08/23 12:12:12;;;;;;;5.43;2.90;;;29.70;90.90;;;;;;5014935;28;20037;-68
2022/08/23 12:14:44;;;;;;;10.60;3.40;;;29.50;90.60;;;;;;5031737;28;20063;-67
2022/08/23 12:17:15;;;;;;;9.73;3.00;;;29.30;91.00;;;;;;5031388;28;20078;-67
2022/08/23 12:19:47;;;;;;;;;;;29.10;90.90;;;;;;5032327;28;20500;-67
2022/08/23 12:22:27;;;;;;;7.68;2.85;;;29.10;91.40;;;;;;5047897;28;19920;-68
2022/08/23 12:24:59;;;;;;;7.85;2.67;;;29.10;91.30;;;;;;5031645;28;20080;-67
2022/08/23 12:27:38;;;;;;;5.78;2.65;;;29.10;91.10;;;;;;5031315;28;20388;-67
2022/08/23 12:30:09;;;;;;;9.38;2.50;;;29.10;90.80;;;;;;5031268;28;20044;-66
2022/08/23 12:32:47;;;;;;;;;;;29.10;91.20;;;;;;5037989;28;20093;-68
2022/08/23 12:35:29;;;;;;;4.72;2.50;;;29.00;90.30;;;;;;5109467;28;19959;-68
2022/08/23 12:37:57;;;;;;;;;;;29.00;90.60;;;;;;5126534;28;20451;-68
2022/08/23 12:40:35;;;;;;;5.68;2.45;;;28.90;90.20;;;;;;5129759;28;19926;-67
2022/08/23 12:43:18;;;;;;;6.07;2.80;;;28.90;90.50;;;;;;5129854;28;20047;-69
2022/08/23 12:45:48;;;;;;;7.25;2.70;;;28.80;90.00;;;;;;5130434;27;20483;-69
2022/08/23 12:48:19;;;;;;;6.93;2.60;;;28.80;89.60;;;;;;5129884;28;20390;-67
2022/08/23 12:50:55;;;;;;;6.32;2.70;;;28.80;89.30;;;;;;5130230;27;20039;-68
2022/08/23 12:53:31;;;;;;;5.07;2.65;;;28.80;88.80;;;;;;5113087;28;20393;-67
2022/08/23 12:56:17;;;;;;;4.75;2.70;;;28.80;90.20;;;;;;5130007;28;20078;-68
2022/08/23 12:58:50;;;;;;;5.07;2.60;;;28.90;89.70;;;;;;5130099;27;20035;-69
2022/08/23 13:01:36;;;;;;;7.40;2.78;;;28.90;89.90;;;;;;5133685;27;20117;-70
2022/08/23 13:04:13;;;;;;;7.90;3.10;;;28.90;90.30;;;;;;5116839;27;20039;-68
2022/08/23 13:06:41;;;;;;;7.57;3.60;;;28.90;89.60;;;;;;5133928;27;20387;-66
2022/08/23 13:09:21;;;;;;;7.72;2.80;;;28.90;89.70;;;;;;5135050;27;20114;-68
2022/08/23 13:11:47;;;;;;;9.65;3.00;;;28.90;89.30;;;;;;5133894;27;20027;-67
2022/08/23 13:14:26;;;;;;;7.22;2.47;;;28.90;90.00;;;;;;5133664;27;20122;-66